< < Back
Terminal Aerodrome Forecast


Current Version              Previous Versions:   1  2  3  4  5  6  7  8  9  

Terminal Aerodrome Forecast

519
FTUS44 KMRX 240523
TAFTYS
TAF
KTYS 240523Z 2406/2506 25005KT P6SM SKC
     FM250000 23003KT P6SM SKC=

Latest METAR

257
SAUS80 KWBC 241700
MTRTYS
METAR KTYS 241653Z 00000KT 10SM FEW040 BKN250 25/11 A3016 RMK AO2 SLP205
T02500111


USA.gov is the U.S. government's official web portal to all federal, state and local government web resources and services.